createdAt,value
2023-02-02T00:00:00.126Z,0.00
2023-02-02T00:01:00.029Z,0.00
2023-02-02T00:01:59.966Z,0.00
2023-02-02T00:02:59.898Z,0.00
2023-02-02T00:03:59.848Z,0.00
2023-02-02T00:04:59.752Z,0.00
2023-02-02T00:05:59.686Z,0.00
2023-02-02T00:06:59.623Z,0.00
2023-02-02T00:07:59.545Z,0.00
2023-02-02T00:08:59.482Z,0.00
2023-02-02T00:09:59.401Z,0.00
2023-02-02T00:10:59.333Z,0.00
2023-02-02T00:11:59.277Z,0.00
2023-02-02T00:12:59.193Z,0.00
2023-02-02T00:13:59.174Z,0.00
2023-02-02T00:14:59.056Z,0.00
2023-02-02T00:15:59.022Z,0.00
2023-02-02T00:16:58.921Z,0.00
2023-02-02T00:17:58.853Z,0.00
2023-02-02T00:18:58.767Z,0.00
2023-02-02T00:19:58.701Z,0.00
2023-02-02T00:20:58.644Z,0.00
2023-02-02T00:21:58.571Z,0.00
2023-02-02T00:22:58.491Z,0.00
2023-02-02T00:23:58.437Z,0.00
2023-02-02T00:24:58.371Z,0.00
2023-02-02T00:25:58.302Z,0.00
2023-02-02T00:26:58.215Z,0.00
2023-02-02T00:27:58.160Z,0.00
2023-02-02T00:28:58.086Z,0.00
2023-02-02T00:29:58.015Z,0.00
2023-02-02T00:30:58.022Z,0.00
2023-02-02T00:31:57.870Z,0.00
2023-02-02T00:32:57.815Z,0.00
2023-02-02T00:33:57.738Z,0.00
2023-02-02T00:34:57.664Z,0.00
2023-02-02T00:35:57.598Z,0.00
2023-02-02T00:36:57.529Z,0.00
2023-02-02T00:37:57.457Z,0.00
2023-02-02T00:38:57.389Z,0.00
2023-02-02T00:39:57.317Z,0.00
2023-02-02T00:40:57.248Z,0.00
2023-02-02T00:41:57.180Z,0.00
2023-02-02T00:42:57.124Z,0.00
2023-02-02T00:43:57.051Z,0.00
2023-02-02T00:44:56.968Z,0.00
2023-02-02T00:45:57.044Z,0.00
2023-02-02T00:46:56.830Z,0.00
2023-02-02T00:47:56.759Z,0.00
2023-02-02T00:48:56.693Z,0.00
2023-02-02T00:49:56.642Z,0.00
2023-02-02T00:50:56.557Z,0.00
2023-02-02T00:51:56.492Z,0.00
2023-02-02T00:52:56.412Z,0.00
2023-02-02T00:53:56.342Z,0.00
2023-02-02T00:54:56.274Z,0.00
2023-02-02T00:55:56.206Z,0.00
2023-02-02T00:56:56.129Z,0.00
2023-02-02T00:57:56.067Z,0.00
2023-02-02T00:58:56.013Z,0.00
2023-02-02T00:59:55.951Z,0.00
2023-02-02T01:00:55.865Z,0.00
2023-02-02T01:01:55.868Z,0.00
2023-02-02T01:02:55.724Z,0.00
2023-02-02T01:03:55.655Z,0.00
2023-02-02T01:04:55.580Z,0.00
2023-02-02T01:05:55.512Z,0.00
2023-02-02T01:06:55.459Z,0.00
2023-02-02T01:07:55.369Z,0.00
2023-02-02T01:08:55.307Z,0.00
2023-02-02T01:09:55.236Z,0.00
2023-02-02T01:10:55.168Z,0.00
2023-02-02T01:11:55.111Z,0.00
2023-02-02T01:12:55.024Z,0.00
2023-02-02T01:13:54.953Z,0.00
2023-02-02T01:14:54.878Z,0.00
2023-02-02T01:15:54.808Z,0.00
2023-02-02T01:16:54.738Z,0.00
2023-02-02T01:17:54.668Z,0.00
2023-02-02T01:18:54.612Z,0.00
2023-02-02T01:19:54.533Z,0.00
2023-02-02T01:20:54.463Z,0.00
2023-02-02T01:21:54.391Z,0.00
2023-02-02T01:22:54.335Z,0.00
2023-02-02T01:23:54.253Z,0.00
2023-02-02T01:24:54.178Z,0.00
2023-02-02T01:25:54.112Z,0.00
2023-02-02T01:26:54.062Z,0.00
2023-02-02T01:27:53.974Z,0.00
2023-02-02T01:28:53.910Z,0.00
2023-02-02T01:29:53.832Z,0.00
2023-02-02T01:30:53.816Z,0.00
2023-02-02T01:31:53.722Z,0.00
2023-02-02T01:32:53.624Z,0.00
2023-02-02T01:33:53.556Z,0.00
2023-02-02T01:34:53.487Z,0.00
2023-02-02T01:35:53.414Z,0.00
2023-02-02T01:36:53.343Z,0.00
2023-02-02T01:37:53.346Z,0.00
2023-02-02T01:38:53.219Z,0.00
2023-02-02T01:39:53.137Z,0.00
2023-02-02T01:40:53.063Z,0.00
2023-02-02T01:41:52.995Z,0.00
2023-02-02T01:42:52.923Z,0.00
2023-02-02T01:43:52.933Z,0.00
2023-02-02T01:44:52.809Z,0.00
2023-02-02T01:45:52.762Z,0.00
2023-02-02T01:46:52.648Z,0.00
2023-02-02T01:47:52.581Z,0.00
2023-02-02T01:48:52.501Z,0.00
2023-02-02T01:49:52.439Z,0.00
2023-02-02T01:50:52.367Z,0.00
2023-02-02T01:51:52.297Z,0.00
2023-02-02T01:52:52.226Z,0.00
2023-02-02T01:53:52.161Z,0.00
2023-02-02T01:54:52.095Z,0.00
2023-02-02T01:55:52.017Z,0.00
2023-02-02T01:56:51.959Z,0.00
2023-02-02T01:57:51.883Z,0.00
2023-02-02T01:58:51.815Z,0.00
2023-02-02T01:59:51.733Z,0.00
2023-02-02T02:00:51.670Z,0.00
2023-02-02T02:01:51.612Z,0.00
2023-02-02T02:02:51.533Z,0.00
2023-02-02T02:03:51.460Z,0.00
2023-02-02T02:04:51.388Z,0.00
2023-02-02T02:05:51.347Z,0.00
2023-02-02T02:06:51.263Z,0.00
2023-02-02T02:07:51.188Z,0.00
2023-02-02T02:08:51.109Z,0.00
2023-02-02T02:09:51.042Z,0.00
2023-02-02T02:10:50.976Z,0.00
2023-02-02T02:11:50.903Z,0.00
2023-02-02T02:12:50.839Z,0.00
2023-02-02T02:13:50.759Z,0.00
2023-02-02T02:14:50.693Z,0.00
2023-02-02T02:15:50.629Z,0.00
2023-02-02T02:16:50.569Z,0.00
2023-02-02T02:17:50.489Z,0.00
2023-02-02T02:18:50.412Z,0.00
2023-02-02T02:19:50.341Z,0.00
2023-02-02T02:20:50.280Z,0.00
2023-02-02T02:21:50.214Z,0.00
2023-02-02T02:22:50.152Z,0.00
2023-02-02T02:23:50.059Z,0.00
2023-02-02T02:24:49.988Z,0.00
2023-02-02T02:25:49.928Z,0.00
2023-02-02T02:26:49.936Z,0.00
2023-02-02T02:27:49.791Z,0.00
2023-02-02T02:28:49.717Z,0.00
2023-02-02T02:29:49.660Z,0.00
2023-02-02T02:30:49.694Z,0.00
2023-02-02T02:31:49.601Z,0.00
2023-02-02T02:32:49.460Z,0.00
2023-02-02T02:33:49.384Z,0.00
2023-02-02T02:34:49.308Z,0.00
2023-02-02T02:35:49.235Z,0.00
2023-02-02T02:36:49.168Z,0.00
2023-02-02T02:37:49.105Z,0.00
2023-02-02T02:38:49.031Z,0.00
2023-02-02T02:39:48.953Z,0.00
2023-02-02T02:40:48.896Z,0.00
2023-02-02T02:41:48.826Z,0.00
2023-02-02T02:42:48.753Z,0.00
2023-02-02T02:43:48.696Z,0.00
2023-02-02T02:44:48.625Z,0.00
2023-02-02T02:45:48.578Z,0.00
2023-02-02T02:46:48.481Z,0.00
2023-02-02T02:47:48.408Z,0.00
2023-02-02T02:48:48.359Z,0.00
2023-02-02T02:49:48.265Z,0.00
2023-02-02T02:50:48.192Z,0.00
2023-02-02T02:51:48.120Z,0.00
2023-02-02T02:52:48.065Z,0.00
2023-02-02T02:53:47.982Z,0.00
2023-02-02T02:54:47.922Z,0.00
2023-02-02T02:55:47.868Z,0.00
2023-02-02T02:56:47.778Z,0.00
2023-02-02T02:57:47.716Z,0.00
2023-02-02T02:58:47.638Z,0.00
2023-02-02T02:59:47.558Z,0.00
2023-02-02T03:00:47.503Z,0.00
2023-02-02T03:01:47.507Z,0.00
2023-02-02T03:02:47.381Z,0.00
2023-02-02T03:03:47.292Z,0.00
2023-02-02T03:04:47.218Z,0.00
2023-02-02T03:05:47.180Z,0.00
2023-02-02T03:06:47.095Z,0.00
2023-02-02T03:07:47.013Z,0.00
2023-02-02T03:08:46.949Z,0.00
2023-02-02T03:09:46.869Z,0.00
2023-02-02T03:10:46.822Z,0.00
2023-02-02T03:11:46.743Z,0.00
2023-02-02T03:12:46.661Z,0.00
2023-02-02T03:13:46.604Z,0.00
2023-02-02T03:14:46.522Z,0.00
2023-02-02T03:15:46.513Z,0.00
2023-02-02T03:16:46.399Z,0.00
2023-02-02T03:17:46.388Z,0.00
2023-02-02T03:18:46.252Z,0.00
2023-02-02T03:19:46.187Z,0.00
2023-02-02T03:20:46.128Z,0.00
2023-02-02T03:21:46.046Z,0.00
2023-02-02T03:22:45.970Z,0.00
2023-02-02T03:23:45.922Z,0.00
2023-02-02T03:24:45.847Z,0.00
2023-02-02T03:25:45.763Z,0.00
2023-02-02T03:26:45.788Z,0.00
2023-02-02T03:27:45.631Z,0.00
2023-02-02T03:28:45.567Z,0.00
2023-02-02T03:29:45.517Z,0.00
2023-02-02T03:30:45.457Z,0.00
2023-02-02T03:31:45.377Z,0.00
2023-02-02T03:32:45.298Z,0.00
2023-02-02T03:33:45.239Z,0.00
2023-02-02T03:34:45.146Z,0.00
2023-02-02T03:35:45.085Z,0.00
2023-02-02T03:36:45.003Z,0.00
2023-02-02T03:37:44.961Z,0.00
2023-02-02T03:38:44.940Z,0.00
2023-02-02T03:39:44.812Z,0.00
2023-02-02T03:40:44.741Z,0.00
2023-02-02T03:41:44.667Z,0.00
2023-02-02T03:42:44.618Z,0.00
2023-02-02T03:43:44.539Z,0.00
2023-02-02T03:44:44.457Z,0.00
2023-02-02T03:45:44.387Z,0.00
2023-02-02T03:46:44.400Z,0.00
2023-02-02T03:47:44.246Z,0.00
2023-02-02T03:48:44.180Z,0.00
2023-02-02T03:49:44.109Z,0.00
2023-02-02T03:50:44.048Z,0.00
2023-02-02T03:51:43.987Z,0.00
2023-02-02T03:52:43.905Z,0.00
2023-02-02T03:53:43.910Z,0.00
2023-02-02T03:54:43.785Z,0.00
2023-02-02T03:55:43.717Z,0.00
2023-02-02T03:56:43.642Z,0.00
2023-02-02T03:57:43.658Z,0.00
2023-02-02T03:58:43.499Z,0.00
2023-02-02T03:59:43.426Z,0.00
2023-02-02T04:00:43.351Z,0.00
2023-02-02T04:01:43.332Z,0.00
2023-02-02T04:02:43.243Z,0.00
2023-02-02T04:03:43.153Z,0.00
2023-02-02T04:04:43.079Z,0.00
2023-02-02T04:05:42.997Z,0.00
2023-02-02T04:06:42.936Z,0.00
2023-02-02T04:07:42.867Z,0.00
2023-02-02T04:08:42.796Z,0.00
2023-02-02T04:09:42.727Z,0.00
2023-02-02T04:10:42.669Z,0.00
2023-02-02T04:11:42.592Z,0.00
2023-02-02T04:12:42.534Z,0.00
2023-02-02T04:13:42.447Z,0.00
2023-02-02T04:14:42.387Z,0.00
2023-02-02T04:15:42.309Z,0.00
2023-02-02T04:16:42.246Z,0.00
2023-02-02T04:17:42.171Z,0.00
2023-02-02T04:18:42.113Z,0.00
2023-02-02T04:19:42.038Z,0.00
2023-02-02T04:20:41.978Z,0.00
2023-02-02T04:21:41.912Z,0.00
2023-02-02T04:22:41.844Z,0.00
2023-02-02T04:23:41.760Z,0.00
2023-02-02T04:24:41.694Z,0.00
2023-02-02T04:25:41.617Z,0.00
2023-02-02T04:26:41.580Z,0.00
2023-02-02T04:27:41.482Z,0.00
2023-02-02T04:28:41.419Z,0.00
2023-02-02T04:29:41.349Z,0.00
2023-02-02T04:30:41.297Z,0.00
2023-02-02T04:31:41.251Z,0.00
2023-02-02T04:32:41.142Z,0.00
2023-02-02T04:33:41.082Z,0.00
2023-02-02T04:34:41.006Z,0.00
2023-02-02T04:35:40.935Z,0.00
2023-02-02T04:36:40.860Z,0.00
2023-02-02T04:37:40.797Z,0.00
2023-02-02T04:38:40.733Z,0.00
2023-02-02T04:39:40.654Z,0.00
2023-02-02T04:40:40.584Z,0.00
2023-02-02T04:41:40.526Z,0.00
2023-02-02T04:42:40.448Z,0.00
2023-02-02T04:43:40.392Z,0.00
2023-02-02T04:44:40.311Z,0.00
2023-02-02T04:45:40.289Z,0.00
2023-02-02T04:46:40.172Z,0.00
2023-02-02T04:47:40.112Z,0.00
2023-02-02T04:48:40.059Z,0.00
2023-02-02T04:49:39.967Z,0.00
2023-02-02T04:50:39.898Z,0.00
2023-02-02T04:51:39.839Z,0.00
2023-02-02T04:52:39.767Z,0.00
2023-02-02T04:53:39.702Z,0.00
2023-02-02T04:54:39.623Z,0.00
2023-02-02T04:55:39.553Z,0.00
2023-02-02T04:56:39.487Z,0.00
2023-02-02T04:57:39.415Z,0.00
2023-02-02T04:58:39.346Z,0.00
2023-02-02T04:59:42.192Z,0.00
2023-02-02T05:00:39.222Z,0.00
2023-02-02T05:01:39.140Z,0.00
2023-02-02T05:02:39.066Z,0.00
2023-02-02T05:03:39.000Z,0.00
2023-02-02T05:04:38.971Z,0.00
2023-02-02T05:05:38.882Z,0.00
2023-02-02T05:06:38.793Z,0.00
2023-02-02T05:07:38.722Z,0.00
2023-02-02T05:08:38.660Z,0.00
2023-02-02T05:09:38.623Z,0.00
2023-02-02T05:10:38.518Z,0.00
2023-02-02T05:11:38.446Z,0.00
2023-02-02T05:12:38.399Z,0.00
2023-02-02T05:13:38.311Z,0.00
2023-02-02T05:14:38.252Z,0.00
2023-02-02T05:15:38.178Z,0.00
2023-02-02T05:16:38.119Z,0.00
2023-02-02T05:17:38.039Z,0.00
2023-02-02T05:18:37.994Z,0.00
2023-02-02T05:19:37.892Z,0.00
2023-02-02T05:20:37.836Z,0.00
2023-02-02T05:21:37.761Z,0.00
2023-02-02T05:22:37.692Z,0.00
2023-02-02T05:23:37.621Z,0.00
2023-02-02T05:24:37.565Z,0.00
2023-02-02T05:25:37.482Z,0.00
2023-02-02T05:26:37.448Z,0.00
2023-02-02T05:27:37.364Z,0.00
2023-02-02T05:28:37.279Z,0.00
2023-02-02T05:29:37.218Z,0.00
2023-02-02T05:30:37.169Z,0.00
2023-02-02T05:31:37.143Z,0.00
2023-02-02T05:32:37.001Z,0.00
2023-02-02T05:33:36.932Z,0.00
2023-02-02T05:34:36.867Z,0.00
2023-02-02T05:35:36.800Z,0.00
2023-02-02T05:36:36.740Z,0.00
2023-02-02T05:37:36.657Z,0.00
2023-02-02T05:38:36.599Z,0.00
2023-02-02T05:39:36.527Z,0.00
2023-02-02T05:40:36.456Z,0.00
2023-02-02T05:41:36.378Z,0.00
2023-02-02T05:42:36.346Z,0.00
2023-02-02T05:43:36.249Z,0.00
2023-02-02T05:44:36.183Z,0.00
2023-02-02T05:45:36.268Z,0.00
2023-02-02T05:46:36.048Z,0.00
2023-02-02T05:47:35.969Z,0.00
2023-02-02T05:48:35.905Z,0.00
2023-02-02T05:49:35.835Z,0.00
2023-02-02T05:50:35.761Z,0.00
2023-02-02T05:51:35.694Z,0.00
2023-02-02T05:52:35.627Z,0.00
2023-02-02T05:53:35.564Z,0.00
2023-02-02T05:54:35.486Z,0.00
2023-02-02T05:55:35.421Z,0.00
2023-02-02T05:56:35.353Z,0.00
2023-02-02T05:57:35.278Z,0.00
2023-02-02T05:58:35.227Z,0.00
2023-02-02T05:59:35.137Z,0.00
2023-02-02T06:00:35.069Z,0.00
2023-02-02T06:01:35.015Z,0.00
2023-02-02T06:02:34.943Z,0.00
2023-02-02T06:03:34.956Z,0.00
2023-02-02T06:04:34.800Z,0.00
2023-02-02T06:05:34.727Z,0.00
2023-02-02T06:06:34.662Z,0.00
2023-02-02T06:07:34.597Z,0.00
2023-02-02T06:08:34.542Z,0.00
2023-02-02T06:09:34.459Z,0.00
2023-02-02T06:10:34.395Z,0.00
2023-02-02T06:11:34.319Z,0.00
2023-02-02T06:12:34.251Z,0.00
2023-02-02T06:13:34.181Z,0.00
2023-02-02T06:14:34.126Z,0.00
2023-02-02T06:15:34.106Z,0.00
2023-02-02T06:16:33.969Z,0.00
2023-02-02T06:17:33.899Z,0.00
2023-02-02T06:18:33.861Z,0.00
2023-02-02T06:19:33.776Z,0.00
2023-02-02T06:20:33.712Z,0.00
2023-02-02T06:21:33.624Z,0.00
2023-02-02T06:22:33.560Z,0.00
2023-02-02T06:23:33.486Z,0.00
2023-02-02T06:24:33.420Z,0.00
2023-02-02T06:25:33.385Z,0.00
2023-02-02T06:26:33.425Z,0.00
2023-02-02T06:27:33.217Z,0.00
2023-02-02T06:28:33.153Z,0.00
2023-02-02T06:29:33.086Z,0.00
2023-02-02T06:30:33.141Z,0.00
2023-02-02T06:31:33.056Z,0.00
2023-02-02T06:32:32.867Z,0.00
2023-02-02T06:33:32.818Z,0.00
2023-02-02T06:34:32.731Z,0.00
2023-02-02T06:35:32.661Z,0.00
2023-02-02T06:36:32.589Z,0.00
2023-02-02T06:37:32.536Z,0.00
2023-02-02T06:38:32.451Z,0.00
2023-02-02T06:39:32.389Z,0.00
2023-02-02T06:40:32.321Z,0.00
2023-02-02T06:41:32.274Z,0.00
2023-02-02T06:42:32.187Z,0.00
2023-02-02T06:43:32.106Z,0.00
2023-02-02T06:44:32.045Z,0.00
2023-02-02T06:45:31.973Z,0.00
2023-02-02T06:46:32.001Z,0.00
2023-02-02T06:47:31.845Z,0.00
2023-02-02T06:48:31.795Z,0.00
2023-02-02T06:49:31.697Z,0.00
2023-02-02T06:50:31.629Z,0.00
2023-02-02T06:51:31.578Z,0.00
2023-02-02T06:52:31.490Z,0.00
2023-02-02T06:53:31.424Z,0.00
2023-02-02T06:54:31.352Z,5.63
2023-02-02T06:55:31.286Z,5.63
2023-02-02T06:56:31.211Z,5.63
2023-02-02T06:57:31.147Z,5.63
2023-02-02T06:58:31.073Z,5.63
2023-02-02T06:59:31.006Z,5.63
2023-02-02T07:00:31.039Z,5.63
2023-02-02T07:01:30.963Z,11.25
2023-02-02T07:02:30.842Z,11.25
2023-02-02T07:03:30.735Z,11.25
2023-02-02T07:04:30.672Z,11.25
2023-02-02T07:05:31.169Z,11.25
2023-02-02T07:06:30.536Z,11.25
2023-02-02T07:07:30.458Z,11.25
2023-02-02T07:08:30.402Z,16.88
2023-02-02T07:09:30.317Z,16.88
2023-02-02T07:11:14.737Z,16.88
2023-02-02T07:11:30.192Z,16.88
2023-02-02T07:12:30.117Z,16.88
2023-02-02T07:13:30.049Z,16.88
2023-02-02T07:14:29.971Z,16.88
2023-02-02T07:15:29.903Z,16.88
2023-02-02T07:16:29.838Z,22.50
2023-02-02T07:17:29.787Z,22.50
2023-02-02T07:18:29.695Z,22.50
2023-02-02T07:19:29.627Z,22.50
2023-02-02T07:20:29.664Z,22.50
2023-02-02T07:21:29.513Z,28.13
2023-02-02T07:22:29.451Z,28.13
2023-02-02T07:23:29.375Z,28.13
2023-02-02T07:24:29.281Z,33.75
2023-02-02T07:25:29.250Z,33.75
2023-02-02T07:26:29.196Z,39.38
2023-02-02T07:27:29.075Z,39.38
2023-02-02T07:28:29.017Z,39.38
2023-02-02T07:29:28.956Z,45.00
2023-02-02T07:30:28.955Z,45.00
2023-02-02T07:31:28.811Z,45.00
2023-02-02T07:32:28.733Z,45.00
2023-02-02T07:33:28.670Z,50.63
2023-02-02T07:34:28.599Z,56.25
2023-02-02T07:35:28.538Z,73.13
2023-02-02T07:36:28.456Z,78.75
2023-02-02T07:37:28.386Z,73.13
2023-02-02T07:38:28.329Z,84.38
2023-02-02T07:39:28.259Z,84.38
2023-02-02T07:40:28.256Z,84.38
2023-02-02T07:41:28.126Z,84.38
2023-02-02T07:42:28.046Z,78.75
2023-02-02T07:43:27.984Z,78.75
2023-02-02T07:44:27.903Z,73.13
2023-02-02T07:45:28.174Z,73.13
2023-02-02T07:46:27.845Z,73.13
2023-02-02T07:47:27.714Z,78.75
2023-02-02T07:48:27.636Z,90.00
2023-02-02T07:49:27.564Z,140.63
2023-02-02T07:50:27.552Z,174.38
2023-02-02T07:51:27.427Z,202.50
2023-02-02T07:52:27.355Z,219.38
2023-02-02T07:53:27.294Z,241.88
2023-02-02T07:54:27.213Z,258.75
2023-02-02T07:55:27.373Z,270.00
2023-02-02T07:56:27.079Z,286.88
2023-02-02T07:57:27.023Z,303.75
2023-02-02T07:58:26.944Z,315.00
2023-02-02T07:59:26.878Z,331.88
2023-02-02T08:00:26.997Z,337.50
2023-02-02T08:01:26.899Z,348.75
2023-02-02T08:02:26.730Z,348.75
2023-02-02T08:03:26.601Z,348.75
2023-02-02T08:04:26.541Z,371.25
2023-02-02T08:05:26.930Z,382.50
2023-02-02T08:06:26.402Z,292.50
2023-02-02T08:07:26.339Z,180.00
2023-02-02T08:08:26.262Z,438.75
2023-02-02T08:09:26.192Z,450.00
2023-02-02T08:10:26.135Z,489.38
2023-02-02T08:11:26.079Z,495.00
2023-02-02T08:12:25.994Z,511.88
2023-02-02T08:13:25.949Z,523.13
2023-02-02T08:14:25.854Z,517.50
2023-02-02T08:15:26.188Z,360.00
2023-02-02T08:16:25.738Z,196.88
2023-02-02T08:17:25.674Z,264.38
2023-02-02T08:18:25.616Z,331.88
2023-02-02T08:19:25.534Z,258.75
2023-02-02T08:20:25.458Z,241.88
2023-02-02T08:21:25.414Z,433.13
2023-02-02T08:22:25.329Z,450.00
2023-02-02T08:23:25.267Z,236.25
2023-02-02T08:24:25.200Z,247.50
2023-02-02T08:25:25.507Z,258.75
2023-02-02T08:26:25.099Z,225.00
2023-02-02T08:27:25.004Z,191.25
2023-02-02T08:28:24.938Z,180.00
2023-02-02T08:29:24.865Z,236.25
2023-02-02T08:30:24.966Z,579.38
2023-02-02T08:31:24.794Z,613.13
2023-02-02T08:32:24.691Z,607.50
2023-02-02T08:33:24.612Z,590.63
2023-02-02T08:34:24.546Z,551.25
2023-02-02T08:35:24.879Z,495.00
2023-02-02T08:36:24.421Z,196.88
2023-02-02T08:37:24.344Z,568.13
2023-02-02T08:38:24.274Z,579.38
2023-02-02T08:39:24.206Z,579.38
2023-02-02T08:40:24.284Z,585.00
2023-02-02T08:41:24.153Z,573.75
2023-02-02T08:42:24.011Z,613.13
2023-02-02T08:43:24.001Z,607.50
2023-02-02T08:44:23.884Z,568.13
2023-02-02T08:46:04.017Z,253.13
2023-02-02T08:46:23.767Z,618.75
2023-02-02T08:47:23.695Z,585.00
2023-02-02T08:48:23.632Z,489.38
2023-02-02T08:49:23.560Z,630.00
2023-02-02T08:50:23.537Z,641.25
2023-02-02T08:51:23.441Z,635.63
2023-02-02T08:52:25.699Z,613.13
2023-02-02T08:53:23.323Z,540.00
2023-02-02T08:54:23.240Z,241.88
2023-02-02T08:55:23.558Z,641.25
2023-02-02T08:56:23.119Z,534.38
2023-02-02T08:57:23.092Z,331.88
2023-02-02T08:58:22.989Z,675.00
2023-02-02T08:59:22.933Z,613.13
2023-02-02T09:00:22.872Z,343.13
2023-02-02T09:01:22.873Z,309.38
2023-02-02T09:02:22.794Z,376.88
2023-02-02T09:03:22.677Z,213.75
2023-02-02T09:04:22.612Z,180.00
2023-02-02T09:05:22.724Z,180.00
2023-02-02T09:06:22.486Z,191.25
2023-02-02T09:07:22.432Z,196.88
2023-02-02T09:08:22.396Z,185.63
2023-02-02T09:09:22.308Z,174.38
2023-02-02T09:10:22.259Z,151.88
2023-02-02T09:11:22.169Z,112.50
2023-02-02T09:12:22.100Z,112.50
2023-02-02T09:13:23.347Z,174.38
2023-02-02T09:14:22.001Z,219.38
2023-02-02T09:15:22.145Z,225.00
2023-02-02T09:16:21.881Z,219.38
2023-02-02T09:17:21.783Z,236.25
2023-02-02T09:18:21.721Z,230.63
2023-02-02T09:19:21.675Z,236.25
2023-02-02T09:20:21.637Z,225.00
2023-02-02T09:21:21.529Z,562.50
2023-02-02T09:22:21.456Z,219.38
2023-02-02T09:23:21.389Z,258.75
2023-02-02T09:24:21.336Z,236.25
2023-02-02T09:25:21.304Z,354.38
2023-02-02T09:26:21.230Z,270.00
2023-02-02T09:27:21.146Z,213.75
2023-02-02T09:28:21.088Z,748.13
2023-02-02T09:29:20.999Z,185.63
2023-02-02T09:30:21.112Z,236.25
2023-02-02T09:31:20.962Z,213.75
2023-02-02T09:32:20.807Z,669.38
2023-02-02T09:33:20.737Z,281.25
2023-02-02T09:34:20.677Z,213.75
2023-02-02T09:35:20.612Z,168.75
2023-02-02T09:36:20.550Z,208.13
2023-02-02T09:37:20.477Z,236.25
2023-02-02T09:38:20.419Z,686.25
2023-02-02T09:39:20.348Z,225.00
2023-02-02T09:40:20.312Z,241.88
2023-02-02T09:41:20.217Z,714.38
2023-02-02T09:42:20.147Z,185.63
2023-02-02T09:43:20.085Z,236.25
2023-02-02T09:44:20.038Z,174.38
2023-02-02T09:45:19.958Z,196.88
2023-02-02T09:46:19.908Z,208.13
2023-02-02T09:47:19.828Z,157.50
2023-02-02T09:48:19.759Z,191.25
2023-02-02T09:49:19.688Z,213.75
2023-02-02T09:50:19.695Z,230.63
2023-02-02T09:51:19.565Z,168.75
2023-02-02T09:52:19.505Z,202.50
2023-02-02T09:53:19.429Z,225.00
2023-02-02T09:54:19.370Z,241.88
2023-02-02T09:55:19.308Z,455.63
2023-02-02T09:56:19.233Z,151.88
2023-02-02T09:57:19.165Z,151.88
2023-02-02T09:58:19.101Z,135.00
2023-02-02T09:59:21.442Z,118.13
2023-02-02T10:00:19.089Z,112.50
2023-02-02T10:01:18.932Z,106.88
2023-02-02T10:02:18.833Z,106.88
2023-02-02T10:03:18.774Z,112.50
2023-02-02T10:04:18.771Z,151.88
2023-02-02T10:05:18.643Z,168.75
2023-02-02T10:06:18.575Z,140.63
2023-02-02T10:07:18.556Z,135.00
2023-02-02T10:08:32.592Z,129.38
2023-02-02T10:09:18.372Z,140.63
2023-02-02T10:10:18.304Z,123.75
2023-02-02T10:11:18.237Z,123.75
2023-02-02T10:12:18.175Z,185.63
2023-02-02T10:13:18.110Z,196.88
2023-02-02T10:14:18.046Z,157.50
2023-02-02T10:15:18.734Z,174.38
2023-02-02T10:16:18.104Z,185.63
2023-02-02T10:17:17.842Z,146.25
2023-02-02T10:18:17.780Z,146.25
2023-02-02T10:19:17.746Z,163.13
2023-02-02T10:20:17.690Z,151.88
2023-02-02T10:21:17.596Z,151.88
2023-02-02T10:22:17.512Z,202.50
2023-02-02T10:23:17.463Z,230.63
2023-02-02T10:24:17.385Z,168.75
2023-02-02T10:25:17.311Z,168.75
2023-02-02T10:26:17.299Z,478.13
2023-02-02T10:27:17.229Z,489.38
2023-02-02T10:28:17.132Z,241.88
2023-02-02T10:29:17.041Z,230.63
2023-02-02T10:30:16.981Z,236.25
2023-02-02T10:31:17.056Z,253.13
2023-02-02T10:32:16.846Z,185.63
2023-02-02T10:33:16.777Z,596.25
2023-02-02T10:34:16.733Z,720.00
2023-02-02T10:35:16.719Z,720.00
2023-02-02T10:36:16.587Z,354.38
2023-02-02T10:37:16.525Z,450.00
2023-02-02T10:38:16.453Z,376.88
2023-02-02T10:39:16.384Z,933.75
2023-02-02T10:40:16.343Z,315.00
2023-02-02T10:41:16.274Z,270.00
2023-02-02T10:42:16.196Z,185.63
2023-02-02T10:43:16.131Z,168.75
2023-02-02T10:44:16.062Z,174.38
2023-02-02T10:45:15.994Z,180.00
2023-02-02T10:46:15.990Z,163.13
2023-02-02T10:47:15.869Z,185.63
2023-02-02T10:48:15.818Z,191.25
2023-02-02T10:49:15.827Z,157.50
2023-02-02T10:50:15.695Z,135.00
2023-02-02T10:51:15.617Z,146.25
2023-02-02T10:52:15.573Z,151.88
2023-02-02T10:53:15.522Z,140.63
2023-02-02T10:54:15.426Z,151.88
2023-02-02T10:55:15.351Z,157.50
2023-02-02T10:56:15.293Z,135.00
2023-02-02T10:57:15.232Z,146.25
2023-02-02T10:58:15.156Z,151.88
2023-02-02T10:59:15.089Z,168.75
2023-02-02T11:00:15.064Z,168.75
2023-02-02T11:01:15.003Z,1980.00
2023-02-02T11:02:20.741Z,230.63
2023-02-02T11:03:14.842Z,163.13
2023-02-02T11:04:14.773Z,129.38
2023-02-02T11:05:14.696Z,151.88
2023-02-02T11:06:14.630Z,163.13
2023-02-02T11:07:14.572Z,202.50
2023-02-02T11:08:14.513Z,298.13
2023-02-02T11:09:14.436Z,815.63
2023-02-02T11:10:14.366Z,1096.88
2023-02-02T11:11:14.307Z,1006.88
2023-02-02T11:12:14.265Z,540.00
2023-02-02T11:13:14.176Z,196.88
2023-02-02T11:14:14.160Z,1130.63
2023-02-02T11:15:14.046Z,315.00
2023-02-02T11:16:14.048Z,241.88
2023-02-02T11:17:13.911Z,1434.38
2023-02-02T11:18:13.843Z,1771.88
2023-02-02T11:19:13.872Z,1833.75
2023-02-02T11:20:13.714Z,1659.38
2023-02-02T11:21:13.649Z,1800.00
2023-02-02T11:22:13.798Z,939.38
2023-02-02T11:23:13.641Z,286.88
2023-02-02T11:24:13.532Z,1833.75
2023-02-02T11:25:13.511Z,1715.63
2023-02-02T11:26:13.404Z,1715.63
2023-02-02T11:27:13.298Z,1710.00
2023-02-02T11:28:13.224Z,1665.00
2023-02-02T11:29:13.146Z,1423.13
2023-02-02T11:30:13.104Z,1828.13
2023-02-02T11:31:13.172Z,1400.63
2023-02-02T11:32:12.947Z,838.13
2023-02-02T11:33:12.884Z,354.38
2023-02-02T11:34:12.817Z,320.63
2023-02-02T11:35:12.826Z,281.25
2023-02-02T11:36:12.697Z,236.25
2023-02-02T11:37:12.654Z,253.13
2023-02-02T11:38:12.570Z,286.88
2023-02-02T11:39:12.534Z,219.38
2023-02-02T11:40:12.465Z,230.63
2023-02-02T11:41:12.407Z,191.25
2023-02-02T11:42:12.321Z,174.38
2023-02-02T11:43:12.258Z,151.88
2023-02-02T11:44:12.195Z,146.25
2023-02-02T11:45:12.138Z,163.13
2023-02-02T11:46:12.098Z,230.63
2023-02-02T11:47:12.002Z,219.38
2023-02-02T11:48:11.944Z,191.25
2023-02-02T11:49:11.873Z,191.25
2023-02-02T11:50:11.841Z,163.13
2023-02-02T11:51:11.784Z,151.88
2023-02-02T11:52:14.226Z,146.25
2023-02-02T11:53:11.634Z,151.88
2023-02-02T11:54:11.564Z,140.63
2023-02-02T11:55:11.501Z,157.50
2023-02-02T11:56:11.450Z,168.75
2023-02-02T11:57:11.357Z,180.00
2023-02-02T11:58:12.157Z,163.13
2023-02-02T11:59:11.233Z,157.50
2023-02-02T12:00:11.174Z,123.75
2023-02-02T12:01:11.098Z,112.50
2023-02-02T12:02:11.055Z,129.38
2023-02-02T12:03:10.980Z,129.38
2023-02-02T12:04:11.032Z,135.00
2023-02-02T12:05:10.841Z,163.13
2023-02-02T12:06:10.772Z,146.25
2023-02-02T12:07:10.714Z,135.00
2023-02-02T12:08:10.640Z,163.13
2023-02-02T12:09:10.577Z,157.50
2023-02-02T12:10:10.516Z,135.00
2023-02-02T12:11:10.468Z,140.63
2023-02-02T12:12:10.378Z,151.88
2023-02-02T12:13:10.311Z,157.50
2023-02-02T12:14:10.249Z,163.13
2023-02-02T12:15:10.177Z,174.38
2023-02-02T12:16:10.184Z,174.38
2023-02-02T12:17:10.068Z,174.38
2023-02-02T12:18:09.987Z,191.25
2023-02-02T12:19:09.915Z,196.88
2023-02-02T12:20:09.879Z,174.38
2023-02-02T12:21:09.807Z,151.88
2023-02-02T12:22:11.394Z,135.00
2023-02-02T12:23:09.644Z,129.38
2023-02-02T12:24:09.577Z,129.38
2023-02-02T12:25:09.521Z,118.13
2023-02-02T12:26:09.467Z,112.50
2023-02-02T12:27:09.377Z,106.88
2023-02-02T12:28:11.434Z,106.88
2023-02-02T12:29:09.259Z,112.50
2023-02-02T12:30:09.187Z,118.13
2023-02-02T12:31:09.153Z,151.88
2023-02-02T12:32:09.044Z,163.13
2023-02-02T12:33:08.973Z,191.25
2023-02-02T12:34:11.704Z,202.50
2023-02-02T12:35:09.021Z,180.00
2023-02-02T12:36:08.777Z,168.75
2023-02-02T12:37:08.706Z,168.75
2023-02-02T12:38:08.649Z,174.38
2023-02-02T12:39:08.578Z,180.00
2023-02-02T12:40:11.334Z,168.75
2023-02-02T12:41:08.447Z,118.13
2023-02-02T12:42:08.374Z,118.13
2023-02-02T12:43:08.316Z,151.88
2023-02-02T12:44:08.238Z,146.25
2023-02-02T12:45:08.178Z,146.25
2023-02-02T12:46:09.488Z,140.63
2023-02-02T12:47:08.044Z,140.63
2023-02-02T12:48:07.986Z,140.63
2023-02-02T12:49:07.923Z,135.00
2023-02-02T12:50:07.840Z,135.00
2023-02-02T12:51:07.768Z,135.00
2023-02-02T12:52:08.397Z,135.00
2023-02-02T12:53:07.645Z,135.00
2023-02-02T12:54:32.664Z,135.00